Time;durP1;ratioP1;P1;durP2;ratioP2;P2;SDS_P1;SDS_P2;PMS_P1;PMS_P2;Temp;Humidity;BMP_temperature;BMP_pressure;BME280_temperature;BME280_humidity;BME280_pressure;Samples;Min_cycle;Max_cycle;Signal;HPM_P1;HPM_P2
2021/08/22 00:00:32;;;;;;;5.00;4.28;;;;;24.90;101299.00;;;;5050580;28;20199;-78
2021/08/22 00:03:00;;;;;;;4.18;3.47;;;;;24.90;101289.00;;;;5050268;28;20203;-78
2021/08/22 00:05:27;;;;;;;5.10;4.03;;;;;24.90;101291.00;;;;5062162;28;20426;-78
2021/08/22 00:07:54;;;;;;;4.28;3.88;;;;;24.90;101295.00;;;;5050692;28;20204;-78
2021/08/22 00:10:23;;;;;;;6.10;4.40;;;;;24.80;101288.00;;;;5049823;28;20606;-78
2021/08/22 00:12:50;;;;;;;5.60;5.10;;;;;24.90;101286.00;;;;5065918;28;20207;-78
2021/08/22 00:15:18;;;;;;;5.28;4.38;;;;;24.90;101291.00;;;;5069957;28;20242;-78
2021/08/22 00:17:45;;;;;;;5.38;4.78;;;;;24.80;101281.00;;;;5070334;28;20203;-78
2021/08/22 00:20:12;;;;;;;5.13;4.50;;;;;24.80;101286.00;;;;5069924;28;20211;-77
2021/08/22 00:22:40;;;;;;;6.57;5.97;;;;;24.80;101286.00;;;;5070434;28;20203;-77
2021/08/22 00:25:09;;;;;;;5.38;4.75;;;;;24.80;101281.00;;;;5056364;28;20670;-77
2021/08/22 00:27:37;;;;;;;5.47;4.93;;;;;24.80;101278.00;;;;5050108;28;20203;-77
2021/08/22 00:30:06;;;;;;;5.85;5.35;;;;;24.80;101282.00;;;;5050108;28;20218;-77
2021/08/22 00:32:33;;;;;;;6.75;5.40;;;;;24.80;101278.00;;;;5050305;28;20270;-77
2021/08/22 00:35:00;;;;;;;6.10;5.50;;;;;24.80;101274.00;;;;5049652;28;20233;-77
2021/08/22 00:37:29;;;;;;;5.82;5.30;;;;;24.80;101265.00;;;;5049542;28;20239;-77
2021/08/22 00:39:58;;;;;;;5.38;4.82;;;;;24.80;101271.00;;;;5049908;28;20269;-77
2021/08/22 00:42:25;;;;;;;6.88;5.10;;;;;24.80;101268.00;;;;5049072;28;20239;-78
2021/08/22 00:44:54;;;;;;;4.75;4.30;;;;;24.80;101269.00;;;;5049611;28;20673;-77
2021/08/22 00:47:21;;;;;;;4.72;4.25;;;;;24.80;101272.00;;;;5049867;28;20211;-77
2021/08/22 00:49:48;;;;;;;5.05;4.53;;;;;24.80;101271.00;;;;5049716;28;20203;-77
2021/08/22 00:52:16;;;;;;;5.75;4.00;;;;;24.80;101269.00;;;;5049520;28;20206;-77
2021/08/22 00:54:43;;;;;;;4.80;4.22;;;;;24.80;101264.00;;;;5049329;28;20227;-77
2021/08/22 00:57:11;;;;;;;6.90;5.03;;;;;24.70;101262.00;;;;5049429;28;20670;-78
2021/08/22 00:59:39;;;;;;;4.45;4.05;;;;;24.70;101265.00;;;;5049876;28;20204;-77
2021/08/22 01:02:11;;;;;;;4.72;4.20;;;;;24.70;101260.00;;;;5049836;28;20210;-78
2021/08/22 01:04:46;;;;;;;5.35;4.68;;;;;24.70;101262.00;;;;5049692;28;20207;-77
2021/08/22 01:07:20;;;;;;;4.97;4.18;;;;;24.70;101256.00;;;;5049104;28;20210;-77
2021/08/22 01:09:50;;;;;;;4.55;4.13;;;;;24.70;101257.00;;;;5049655;28;20250;-78
2021/08/22 01:12:23;;;;;;;5.53;4.63;;;;;24.70;101256.00;;;;5049474;28;20200;-77
2021/08/22 01:14:54;;;;;;;4.90;3.58;;;;;24.70;101246.00;;;;5048975;28;20235;-78
2021/08/22 01:17:24;;;;;;;5.07;4.57;;;;;24.70;101249.00;;;;5048715;28;20196;-77
2021/08/22 01:20:04;;;;;;;4.05;3.65;;;;;24.60;101246.00;;;;5049115;28;20207;-77
2021/08/22 01:22:33;;;;;;;5.15;4.65;;;;;24.60;101254.00;;;;5048696;28;20669;-77
2021/08/22 01:25:03;;;;;;;4.85;4.43;;;;;24.60;101242.00;;;;5048987;28;20207;-77
2021/08/22 01:27:32;;;;;;;4.22;3.40;;;;;24.60;101248.00;;;;5048497;28;20206;-78
2021/08/22 01:30:04;;;;;;;4.00;3.45;;;;;24.60;101252.00;;;;5048567;28;20230;-78
2021/08/22 01:32:37;;;;;;;4.95;3.88;;;;;24.50;101249.00;;;;5049126;28;20204;-78
2021/08/22 01:35:06;;;;;;;8.50;4.00;;;;;24.60;101252.00;;;;5048695;28;20285;-77
2021/08/22 01:37:36;;;;;;;4.93;4.43;;;;;24.60;101248.00;;;;5049156;28;20227;-77
2021/08/22 01:40:06;;;;;;;4.75;4.25;;;;;24.50;101241.00;;;;5048124;28;20214;-77
2021/08/22 01:42:34;;;;;;;4.38;3.97;;;;;24.50;101250.00;;;;5048669;28;20665;-77
2021/08/22 01:45:03;;;;;;;4.22;3.72;;;;;24.50;101253.00;;;;5048920;28;20584;-78
2021/08/22 01:47:32;;;;;;;4.53;3.92;;;;;24.50;101246.00;;;;5048468;28;20199;-77
2021/08/22 01:50:01;;;;;;;5.03;4.45;;;;;24.50;101247.00;;;;5048711;28;20223;-77
2021/08/22 01:52:29;;;;;;;4.97;4.40;;;;;24.40;101246.00;;;;5048263;28;20214;-77
2021/08/22 01:54:57;;;;;;;4.72;4.03;;;;;24.40;101252.00;;;;5065042;28;20234;-78
2021/08/22 01:57:24;;;;;;;6.78;4.38;;;;;24.40;101246.00;;;;5069189;28;20202;-78
2021/08/22 01:59:51;;;;;;;5.28;3.72;;;;;24.40;101245.00;;;;5067983;28;20203;-78
2021/08/22 02:02:18;;;;;;;5.88;4.50;;;;;24.40;101242.00;;;;5068337;28;20214;-77
2021/08/22 02:04:49;;;;;;;4.97;4.47;;;;;24.30;101243.00;;;;5067797;28;20199;-78
2021/08/22 02:07:21;;;;;;;5.20;4.35;;;;;24.30;101248.00;;;;5068473;28;20206;-77
2021/08/22 02:09:54;;;;;;;4.93;4.45;;;;;24.30;101249.00;;;;5068389;28;20202;-77
2021/08/22 02:12:22;;;;;;;5.03;4.20;;;;;24.30;101250.00;;;;5068205;28;20217;-78
2021/08/22 02:14:55;;;;;;;5.78;4.38;;;;;24.20;101249.00;;;;5068568;28;20633;-77
2021/08/22 02:17:26;;;;;;;9.23;4.88;;;;;24.30;101246.00;;;;5068788;28;20203;-78
2021/08/22 02:19:54;;;;;;;5.68;4.95;;;;;24.30;101248.00;;;;5068332;28;20206;-77
2021/08/22 02:22:23;;;;;;;6.72;4.93;;;;;24.20;101243.00;;;;5068249;28;20282;-78
2021/08/22 02:24:52;;;;;;;7.30;5.05;;;;;24.20;101242.00;;;;5068986;28;20198;-78
2021/08/22 02:27:19;;;;;;;6.78;5.25;;;;;24.20;101244.00;;;;5067407;28;20269;-78
2021/08/22 02:29:49;;;;;;;5.32;4.60;;;;;24.10;101242.00;;;;5068156;28;20466;-78
2021/08/22 02:32:16;;;;;;;7.72;4.40;;;;;24.10;101243.00;;;;5068101;28;20208;-78
2021/08/22 02:34:44;;;;;;;5.30;4.13;;;;;24.10;101239.00;;;;5068820;28;20226;-78
2021/08/22 02:37:11;;;;;;;5.47;4.10;;;;;24.10;101246.00;;;;5057065;28;20227;-78
2021/08/22 02:39:40;;;;;;;6.03;4.65;;;;;24.10;101249.00;;;;5047965;28;20235;-77
2021/08/22 02:42:07;;;;;;;6.97;5.38;;;;;24.10;101239.00;;;;5048373;28;20200;-78
2021/08/22 02:44:35;;;;;;;5.65;4.80;;;;;24.00;101233.00;;;;5048998;28;20735;-77
2021/08/22 02:47:02;;;;;;;6.88;4.70;;;;;24.00;101241.00;;;;5048033;28;20204;-77
2021/08/22 02:49:29;;;;;;;6.20;4.72;;;;;24.00;101238.00;;;;5047878;28;20215;-78
2021/08/22 02:51:56;;;;;;;7.03;5.43;;;;;24.00;101231.00;;;;5047715;28;20689;-77
2021/08/22 02:54:24;;;;;;;8.68;5.00;;;;;24.00;101235.00;;;;5048223;28;20223;-78
2021/08/22 02:56:52;;;;;;;7.13;4.65;;;;;23.90;101238.00;;;;5048381;28;20612;-78
2021/08/22 02:59:19;;;;;;;7.63;4.70;;;;;23.90;101233.00;;;;5050142;28;20215;-77
2021/08/22 03:01:47;;;;;;;6.32;5.00;;;;;23.90;101242.00;;;;5052476;28;20207;-77
2021/08/22 03:04:14;;;;;;;7.95;5.30;;;;;23.90;101234.00;;;;5054783;28;20234;-77
2021/08/22 03:06:41;;;;;;;7.07;5.00;;;;;23.90;101231.00;;;;5059982;28;20278;-77
2021/08/22 03:09:08;;;;;;;5.50;4.72;;;;;23.90;101232.00;;;;5051103;28;20204;-77
2021/08/22 03:11:35;;;;;;;7.03;4.43;;;;;23.90;101233.00;;;;5051902;28;20215;-77
2021/08/22 03:14:05;;;;;;;6.68;4.85;;;;;23.90;101234.00;;;;5051098;28;20226;-77
2021/08/22 03:16:32;;;;;;;6.03;4.88;;;;;23.80;101229.00;;;;5052032;28;20214;-77
2021/08/22 03:18:59;;;;;;;6.03;4.95;;;;;23.80;101233.00;;;;5059580;28;20198;-77
2021/08/22 03:21:27;;;;;;;6.28;4.95;;;;;23.80;101230.00;;;;5071358;28;20199;-77
2021/08/22 03:23:54;;;;;;;7.25;4.72;;;;;23.80;101227.00;;;;5071104;28;20210;-77
2021/08/22 03:26:21;;;;;;;7.40;4.95;;;;;23.80;101221.00;;;;5070910;28;20207;-78
2021/08/22 03:28:48;;;;;;;7.45;5.47;;;;;23.80;101223.00;;;;5071609;28;20195;-78
2021/08/22 03:31:17;;;;;;;5.32;4.28;;;;;23.80;101225.00;;;;5071157;28;20210;-77
2021/08/22 03:33:44;;;;;;;4.45;4.00;;;;;23.80;101220.00;;;;5071090;28;20206;-77
2021/08/22 03:36:12;;;;;;;7.68;4.80;;;;;23.80;101221.00;;;;5059579;28;20666;-77
2021/08/22 03:38:39;;;;;;;6.82;5.13;;;;;23.70;101224.00;;;;5051557;28;20199;-78
2021/08/22 03:41:06;;;;;;;8.75;4.70;;;;;23.70;101221.00;;;;5051386;28;20208;-77
2021/08/22 03:43:33;;;;;;;6.70;4.40;;;;;23.70;101219.00;;;;5050869;28;20702;-77
2021/08/22 03:46:00;;;;;;;6.00;4.68;;;;;23.70;101226.00;;;;5051280;28;20199;-77
2021/08/22 03:48:29;;;;;;;6.95;5.05;;;;;23.70;101227.00;;;;5051054;28;20588;-77
2021/08/22 03:50:56;;;;;;;7.78;5.25;;;;;23.70;101224.00;;;;5049930;28;20199;-78
2021/08/22 03:53:23;;;;;;;5.07;4.32;;;;;23.70;101223.00;;;;5050981;28;20207;-78
2021/08/22 03:55:51;;;;;;;6.50;4.28;;;;;23.70;101222.00;;;;5051334;28;20228;-77
2021/08/22 03:58:18;;;;;;;5.75;4.45;;;;;23.60;101232.00;;;;5050279;28;20207;-78
2021/08/22 04:00:45;;;;;;;5.97;4.97;;;;;23.60;101226.00;;;;5050961;28;20211;-78
2021/08/22 04:03:12;;;;;;;6.47;5.75;;;;;23.60;101227.00;;;;5051062;28;20206;-78
2021/08/22 04:05:41;;;;;;;8.02;5.53;;;;;23.60;101223.00;;;;5069316;28;20202;-78
2021/08/22 04:08:08;;;;;;;10.25;6.28;;;;;23.60;101232.00;;;;5070255;28;20222;-78
2021/08/22 04:10:36;;;;;;;8.38;5.22;;;;;23.60;101240.00;;;;5056371;28;20211;-78
2021/08/22 04:13:03;;;;;;;8.30;6.10;;;;;23.60;101235.00;;;;5050727;28;20196;-78
2021/08/22 04:15:30;;;;;;;8.40;5.75;;;;;23.50;101236.00;;;;5050487;28;20234;-77
2021/08/22 04:17:57;;;;;;;6.90;5.65;;;;;23.50;101235.00;;;;5050119;28;20230;-78
2021/08/22 04:20:25;;;;;;;7.45;5.75;;;;;23.50;101236.00;;;;5049944;28;20204;-78
2021/08/22 04:22:53;;;;;;;10.63;6.40;;;;;23.50;101236.00;;;;5050073;28;20203;-78
2021/08/22 04:25:21;;;;;;;15.02;8.10;;;;;23.50;101242.00;;;;5050301;28;20199;-78
2021/08/22 04:27:48;;;;;;;10.55;6.38;;;;;23.50;101236.00;;;;5050134;28;20208;-78
2021/08/22 04:30:15;;;;;;;11.57;7.40;;;;;23.50;101238.00;;;;5050293;28;20204;-78
2021/08/22 04:32:42;;;;;;;9.05;7.53;;;;;23.50;101246.00;;;;5050507;28;20199;-78
2021/08/22 04:35:10;;;;;;;11.43;7.75;;;;;23.50;101243.00;;;;5049885;28;20234;-78
2021/08/22 04:37:38;;;;;;;10.98;7.95;;;;;23.50;101246.00;;;;5049919;28;20227;-78
2021/08/22 04:40:08;;;;;;;11.82;8.07;;;;;23.50;101246.00;;;;5049567;28;20196;-78
2021/08/22 04:42:35;;;;;;;12.68;8.40;;;;;23.50;101249.00;;;;5050023;28;20211;-78
2021/08/22 04:45:03;;;;;;;10.95;7.43;;;;;23.50;101242.00;;;;5066760;28;20211;-78
2021/08/22 04:47:30;;;;;;;11.98;8.73;;;;;23.50;101240.00;;;;5069999;28;20354;-78
2021/08/22 04:49:57;;;;;;;11.10;8.02;;;;;23.50;101241.00;;;;5069536;28;20203;-78
2021/08/22 04:52:24;;;;;;;11.48;8.98;;;;;23.50;101244.00;;;;5069077;28;20198;-78
2021/08/22 04:54:52;;;;;;;15.73;8.98;;;;;23.50;101248.00;;;;5069174;28;20221;-78
2021/08/22 04:57:21;;;;;;;11.98;9.43;;;;;23.50;101240.00;;;;5069472;28;20206;-78
2021/08/22 04:59:48;;;;;;;13.07;9.02;;;;;23.50;101237.00;;;;5069573;28;20198;-78
2021/08/22 05:02:15;;;;;;;11.70;8.43;;;;;23.50;101244.00;;;;5067971;28;20214;-78
2021/08/22 05:04:42;;;;;;;12.38;7.90;;;;;23.50;101246.00;;;;5059804;28;20207;-78
2021/08/22 05:07:10;;;;;;;14.48;8.90;;;;;23.50;101243.00;;;;5049285;28;20195;-77
2021/08/22 05:09:37;;;;;;;12.70;9.43;;;;;23.50;101250.00;;;;5049273;28;20211;-77
2021/08/22 05:12:04;;;;;;;12.40;8.65;;;;;23.50;101246.00;;;;5048354;28;20204;-78
2021/08/22 05:14:34;;;;;;;13.27;9.32;;;;;23.50;101249.00;;;;5048605;28;20199;-78
2021/08/22 05:17:02;;;;;;;14.52;9.60;;;;;23.50;101247.00;;;;5049446;28;20673;-78
2021/08/22 05:19:29;;;;;;;15.07;8.80;;;;;23.50;101250.00;;;;5068161;28;20195;-78
2021/08/22 05:21:57;;;;;;;15.32;9.43;;;;;23.50;101250.00;;;;5067896;28;20202;-78
2021/08/22 05:24:24;;;;;;;11.88;8.73;;;;;23.50;101249.00;;;;5068474;28;20206;-78
2021/08/22 05:26:51;;;;;;;11.63;8.90;;;;;23.50;101248.00;;;;5068615;28;20202;-78
2021/08/22 05:29:18;;;;;;;11.82;8.43;;;;;23.50;101249.00;;;;5068245;28;20654;-78
2021/08/22 05:31:47;;;;;;;13.77;9.02;;;;;23.50;101243.00;;;;5068023;28;20214;-78
2021/08/22 05:34:14;;;;;;;14.23;8.48;;;;;23.50;101249.00;;;;5065292;28;20676;-78
2021/08/22 05:36:43;;;;;;;12.57;8.73;;;;;23.60;101246.00;;;;5048401;28;20234;-78
2021/08/22 05:39:10;;;;;;;11.25;8.65;;;;;23.60;101245.00;;;;5047963;28;20214;-78
2021/08/22 05:41:37;;;;;;;16.50;11.13;;;;;23.60;101245.00;;;;5048926;28;20208;-78
2021/08/22 05:44:05;;;;;;;12.70;8.63;;;;;23.60;101244.00;;;;5047739;28;20321;-78
2021/08/22 05:46:33;;;;;;;14.00;8.77;;;;;23.60;101250.00;;;;5048601;28;20253;-78
2021/08/22 05:49:02;;;;;;;13.13;9.45;;;;;23.60;101249.00;;;;5048102;28;20290;-78
2021/08/22 05:51:30;;;;;;;13.73;10.23;;;;;23.70;101249.00;;;;5052491;28;20230;-77
2021/08/22 05:53:57;;;;;;;10.98;8.80;;;;;23.70;101260.00;;;;5068148;28;20198;-77
2021/08/22 05:56:24;;;;;;;14.43;9.05;;;;;23.70;101254.00;;;;5067217;28;20234;-79
2021/08/22 05:58:51;;;;;;;14.88;10.25;;;;;23.80;101257.00;;;;5068409;28;20545;-77
2021/08/22 06:01:18;;;;;;;15.77;10.95;;;;;23.80;101257.00;;;;5068035;28;20200;-78
2021/08/22 06:03:46;;;;;;;14.02;9.55;;;;;23.80;101256.00;;;;5066796;28;20199;-77
2021/08/22 06:06:14;;;;;;;13.52;10.05;;;;;23.80;101255.00;;;;5056351;28;20195;-78
2021/08/22 06:08:42;;;;;;;12.55;9.77;;;;;23.80;101257.00;;;;5061830;28;20207;-78
2021/08/22 06:11:09;;;;;;;15.68;10.25;;;;;23.80;101267.00;;;;5047800;28;20692;-77
2021/08/22 06:13:36;;;;;;;11.70;8.93;;;;;23.80;101263.00;;;;5047911;28;20211;-78
2021/08/22 06:16:04;;;;;;;11.75;9.50;;;;;23.90;101274.00;;;;5047875;28;20227;-79
2021/08/22 06:18:31;;;;;;;12.85;9.52;;;;;23.90;101270.00;;;;5048359;28;20203;-79
2021/08/22 06:20:58;;;;;;;12.38;8.85;;;;;23.90;101266.00;;;;5047612;28;20196;-77
2021/08/22 06:23:27;;;;;;;10.02;8.57;;;;;23.90;101275.00;;;;5048394;28;20206;-78
2021/08/22 06:25:54;;;;;;;10.15;9.05;;;;;23.90;101272.00;;;;5049172;28;20208;-78
2021/08/22 06:28:21;;;;;;;10.40;8.50;;;;;23.90;101274.00;;;;5047797;28;20203;-78
2021/08/22 06:30:49;;;;;;;14.18;8.63;;;;;23.90;101274.00;;;;5048595;28;20199;-78
2021/08/22 06:33:16;;;;;;;13.02;8.50;;;;;23.90;101276.00;;;;5050226;28;20665;-78
2021/08/22 06:35:43;;;;;;;10.95;8.35;;;;;23.90;101268.00;;;;5052417;28;20235;-78
2021/08/22 06:38:10;;;;;;;10.43;7.00;;;;;24.00;101270.00;;;;5058160;28;20222;-78
2021/08/22 06:40:39;;;;;;;9.75;7.63;;;;;23.90;101268.00;;;;5072165;28;20195;-78
2021/08/22 06:43:06;;;;;;;9.18;6.72;;;;;24.00;101273.00;;;;5061063;28;20223;-78
2021/08/22 06:45:33;;;;;;;10.40;6.65;;;;;24.00;101273.00;;;;5052668;28;20200;-79
2021/08/22 06:48:01;;;;;;;8.48;6.82;;;;;24.00;101271.00;;;;5052138;28;20200;-79
2021/08/22 06:50:28;;;;;;;11.32;7.40;;;;;24.00;101282.00;;;;5051560;28;20478;-78
2021/08/22 06:52:55;;;;;;;10.02;6.43;;;;;24.00;101280.00;;;;5051784;28;20195;-78
2021/08/22 06:55:22;;;;;;;10.95;6.78;;;;;24.00;101279.00;;;;5051257;28;20228;-78
2021/08/22 06:57:51;;;;;;;10.65;6.65;;;;;24.00;101282.00;;;;5051908;28;20204;-78
2021/08/22 07:00:18;;;;;;;10.00;6.00;;;;;24.00;101283.00;;;;5052349;28;20231;-78
2021/08/22 07:02:46;;;;;;;9.10;6.45;;;;;24.10;101286.00;;;;5051643;28;20200;-78
2021/08/22 07:05:14;;;;;;;8.77;6.38;;;;;24.10;101294.00;;;;5063762;28;20203;-78
2021/08/22 07:07:41;;;;;;;10.93;6.07;;;;;24.10;101290.00;;;;5071363;28;20216;-79
2021/08/22 07:10:10;;;;;;;9.38;6.13;;;;;24.10;101290.00;;;;5071326;28;20206;-78
2021/08/22 07:12:37;;;;;;;8.88;7.63;;;;;24.10;101286.00;;;;5071919;28;20206;-78
2021/08/22 07:15:07;;;;;;;10.23;7.95;;;;;24.00;101295.00;;;;5071202;28;20203;-78
2021/08/22 07:17:34;;;;;;;7.78;6.82;;;;;24.00;101296.00;;;;5058064;28;20210;-78
2021/08/22 07:20:01;;;;;;;11.57;7.60;;;;;24.00;101296.00;;;;5051113;28;20903;-78
2021/08/22 07:22:29;;;;;;;8.85;7.20;;;;;24.00;101299.00;;;;5050736;28;20195;-78
2021/08/22 07:24:56;;;;;;;11.57;7.40;;;;;24.00;101301.00;;;;5051505;28;20200;-78
2021/08/22 07:27:24;;;;;;;9.90;7.53;;;;;24.00;101299.00;;;;5050665;28;20282;-78
2021/08/22 07:29:51;;;;;;;11.45;8.35;;;;;24.00;101302.00;;;;5051614;28;20813;-79
2021/08/22 07:32:20;;;;;;;11.45;8.48;;;;;24.00;101303.00;;;;5051262;28;20210;-79
2021/08/22 07:34:47;;;;;;;14.15;9.80;;;;;24.00;101301.00;;;;5058198;28;20204;-77
2021/08/22 07:37:14;;;;;;;12.25;8.30;;;;;24.00;101305.00;;;;5050267;28;20243;-79
2021/08/22 07:39:41;;;;;;;9.00;7.70;;;;;24.00;101299.00;;;;5051420;28;20211;-78
2021/08/22 07:42:09;;;;;;;10.00;8.00;;;;;24.00;101299.00;;;;5050931;28;20203;-77
2021/08/22 07:44:36;;;;;;;10.90;8.43;;;;;24.10;101304.00;;;;5050441;28;20227;-79
2021/08/22 07:47:04;;;;;;;9.85;7.93;;;;;24.10;101306.00;;;;5051202;28;20200;-78
2021/08/22 07:49:32;;;;;;;9.55;7.70;;;;;24.10;101314.00;;;;5050838;28;20208;-78
2021/08/22 07:52:00;;;;;;;12.63;7.30;;;;;24.10;101310.00;;;;5050762;28;20210;-79
2021/08/22 07:54:27;;;;;;;9.95;7.65;;;;;24.10;101311.00;;;;5050571;28;20204;-79
2021/08/22 07:56:54;;;;;;;13.60;8.20;;;;;24.20;101305.00;;;;5051285;28;20689;-78
2021/08/22 07:59:21;;;;;;;10.63;8.13;;;;;24.20;101311.00;;;;5050542;28;20203;-78
2021/08/22 08:01:49;;;;;;;8.50;6.78;;;;;24.20;101306.00;;;;5050435;28;20199;-78
2021/08/22 08:04:16;;;;;;;9.32;6.25;;;;;24.20;101310.00;;;;5054223;28;20199;-78
2021/08/22 08:06:44;;;;;;;11.80;8.00;;;;;24.20;101316.00;;;;5070650;28;20210;-78
2021/08/22 08:09:12;;;;;;;8.95;7.93;;;;;24.20;101310.00;;;;5051768;28;20212;-79
2021/08/22 08:11:39;;;;;;;9.95;6.95;;;;;24.20;101312.00;;;;5049915;28;20227;-78
2021/08/22 08:14:06;;;;;;;10.73;8.80;;;;;24.20;101310.00;;;;5050708;28;20202;-78
2021/08/22 08:16:33;;;;;;;10.30;8.18;;;;;24.20;101312.00;;;;5050592;28;20234;-77
2021/08/22 08:19:00;;;;;;;9.13;7.68;;;;;24.20;101313.00;;;;5049749;28;20666;-78
2021/08/22 08:21:28;;;;;;;10.27;8.20;;;;;24.20;101326.00;;;;5050043;28;20211;-78
2021/08/22 08:23:57;;;;;;;9.23;8.23;;;;;24.10;101316.00;;;;5050012;28;20196;-77
2021/08/22 08:26:24;;;;;;;9.07;8.15;;;;;24.20;101330.00;;;;5050177;28;20234;-78
2021/08/22 08:28:51;;;;;;;9.13;6.95;;;;;24.10;101322.00;;;;5050098;28;20207;-77
2021/08/22 08:31:18;;;;;;;11.23;8.20;;;;;24.20;101325.00;;;;5050394;28;20226;-78
2021/08/22 08:33:46;;;;;;;9.85;8.15;;;;;24.20;101325.00;;;;5050021;28;20211;-78
2021/08/22 08:36:13;;;;;;;10.63;8.23;;;;;24.20;101328.00;;;;5049659;28;20235;-78
2021/08/22 08:38:40;;;;;;;8.50;7.55;;;;;24.20;101325.00;;;;5049169;28;20200;-78
2021/08/22 08:41:09;;;;;;;10.18;7.32;;;;;24.20;101323.00;;;;5049790;28;20219;-77
2021/08/22 08:43:36;;;;;;;9.80;8.45;;;;;24.20;101321.00;;;;5049870;28;20227;-78
2021/08/22 08:46:05;;;;;;;9.85;8.50;;;;;24.20;101320.00;;;;5049373;28;20203;-78
2021/08/22 08:48:34;;;;;;;9.23;8.30;;;;;24.30;101324.00;;;;5049897;28;20207;-79
2021/08/22 08:51:16;;;;;;;11.48;8.55;;;;;24.30;101322.00;;;;5049539;28;20589;-78
2021/08/22 08:53:44;;;;;;;8.90;7.97;;;;;24.40;101327.00;;;;5049572;28;20215;-78
2021/08/22 08:56:13;;;;;;;9.18;7.10;;;;;24.50;101326.00;;;;5048661;28;20242;-78
2021/08/22 08:58:40;;;;;;;8.50;7.55;;;;;24.60;101321.00;;;;5048928;28;20211;-78
2021/08/22 09:01:07;;;;;;;8.48;7.50;;;;;24.70;101310.00;;;;5049705;28;20290;-79
2021/08/22 09:03:36;;;;;;;9.82;7.32;;;;;24.90;101322.00;;;;5049891;28;20204;-77
2021/08/22 09:06:29;;;;;;;8.25;7.13;;;;;25.00;101317.00;;;;5048909;28;20544;-78
2021/08/22 09:09:34;;;;;;;9.43;7.25;;;;;25.10;101314.00;;;;5049002;28;20199;-78
2021/08/22 09:12:37;;;;;;;7.60;6.30;;;;;25.20;101318.00;;;;5049529;28;20195;-78
2021/08/22 09:15:43;;;;;;;8.35;6.47;;;;;25.40;101319.00;;;;5049398;28;20203;-78
2021/08/22 09:18:48;;;;;;;7.00;6.03;;;;;25.50;101322.00;;;;5049220;28;20318;-77
2021/08/22 09:21:51;;;;;;;7.75;6.95;;;;;25.70;101324.00;;;;5048597;28;20211;-77
2021/08/22 09:25:03;;;;;;;9.05;7.07;;;;;25.80;101331.00;;;;5048739;28;20203;-78
2021/08/22 09:28:08;;;;;;;6.75;6.05;;;;;25.90;101331.00;;;;5033781;28;20196;-78
2021/08/22 09:31:18;;;;;;;7.78;6.70;;;;;25.90;101333.00;;;;5049077;28;20233;-77
2021/08/22 09:34:25;;;;;;;7.55;6.53;;;;;25.90;101335.00;;;;4993519;28;20331;-76
2021/08/22 09:37:32;;;;;;;6.95;6.25;;;;;26.00;101337.00;;;;5048757;28;20231;-77
2021/08/22 09:40:37;;;;;;;7.15;6.45;;;;;26.00;101344.00;;;;5049201;28;20222;-78
2021/08/22 09:43:40;;;;;;;6.90;6.22;;;;;26.00;101337.00;;;;5047900;28;20227;-77
2021/08/22 09:46:56;;;;;;;9.25;6.60;;;;;26.10;101339.00;;;;5048248;28;20237;-78
2021/08/22 09:50:01;;;;;;;8.02;6.07;;;;;26.20;101341.00;;;;5048192;28;20222;-76
2021/08/22 09:53:19;;;;;;;7.35;5.88;;;;;26.30;101338.00;;;;5048098;28;20207;-78
2021/08/22 09:56:26;;;;;;;9.55;6.10;;;;;26.30;101342.00;;;;5049207;28;20207;-77
2021/08/22 09:59:42;;;;;;;5.68;5.13;;;;;26.30;101348.00;;;;5048779;28;20237;-77
2021/08/22 10:02:46;;;;;;;7.93;6.63;;;;;26.40;101341.00;;;;5048488;28;20207;-77
2021/08/22 10:05:39;;;;;;;6.70;5.65;;;;;26.50;101345.00;;;;5058306;28;20195;-77
2021/08/22 10:08:15;;;;;;;7.32;5.88;;;;;26.60;101341.00;;;;5053714;28;20211;-76
2021/08/22 10:10:45;;;;;;;10.25;6.22;;;;;26.60;101343.00;;;;5072964;28;20203;-77
2021/08/22 10:13:13;;;;;;;8.95;6.47;;;;;26.70;101338.00;;;;5072673;28;20841;-76
2021/08/22 10:15:43;;;;;;;10.73;7.00;;;;;26.70;101335.00;;;;5073134;28;20198;-76
2021/08/22 10:18:11;;;;;;;7.32;6.63;;;;;26.80;101339.00;;;;5072312;28;20250;-77
2021/08/22 10:20:43;;;;;;;10.45;7.43;;;;;26.80;101328.00;;;;5072689;28;20202;-76
2021/08/22 10:23:47;;;;;;;7.80;7.00;;;;;26.80;101331.00;;;;5071346;28;20205;-76
2021/08/22 10:26:49;;;;;;;8.13;6.65;;;;;26.90;101322.00;;;;5072208;28;20202;-76
2021/08/22 10:29:22;;;;;;;8.38;7.30;;;;;27.10;101319.00;;;;5071794;28;20205;-77
2021/08/22 10:32:07;;;;;;;7.88;7.07;;;;;27.10;101322.00;;;;5072899;28;20206;-77
2021/08/22 10:34:34;;;;;;;7.80;6.50;;;;;27.20;101318.00;;;;5052628;28;20294;-76
2021/08/22 10:37:32;;;;;;;7.20;6.55;;;;;27.20;101327.00;;;;5052175;28;20713;-78
2021/08/22 10:40:22;;;;;;;8.15;5.82;;;;;27.30;101325.00;;;;5052237;28;20210;-77
2021/08/22 10:42:49;;;;;;;7.88;6.45;;;;;27.30;101315.00;;;;5046984;28;20195;-77
2021/08/22 10:45:43;;;;;;;7.00;5.82;;;;;27.20;101316.00;;;;5052052;28;20207;-77
2021/08/22 10:48:11;;;;;;;6.97;5.35;;;;;27.20;101325.00;;;;5051544;28;20208;-78
2021/08/22 10:51:09;;;;;;;6.55;5.95;;;;;27.00;101325.00;;;;5051866;28;20215;-76
2021/08/22 10:53:38;;;;;;;7.35;5.20;;;;;27.10;101319.00;;;;5052328;28;20223;-77
2021/08/22 10:56:35;;;;;;;6.03;5.25;;;;;27.00;101319.00;;;;5051813;28;20539;-76
2021/08/22 10:59:04;;;;;;;6.28;5.15;;;;;27.20;101321.00;;;;5051913;28;20207;-76
2021/08/22 11:01:32;;;;;;;7.50;5.60;;;;;27.20;101330.00;;;;5051709;28;20214;-76
2021/08/22 11:04:07;;;;;;;6.65;5.20;;;;;27.20;101324.00;;;;5051802;28;20196;-76
2021/08/22 11:06:36;;;;;;;5.15;4.53;;;;;27.20;101322.00;;;;5052192;28;20570;-77
2021/08/22 11:09:05;;;;;;;8.68;4.00;;;;;27.30;101329.00;;;;5051852;28;20661;-77
2021/08/22 11:11:32;;;;;;;4.55;4.07;;;;;27.30;101324.00;;;;5051621;28;20199;-77
2021/08/22 11:14:01;;;;;;;5.85;3.90;;;;;27.30;101326.00;;;;5051827;28;20200;-77
2021/08/22 11:16:46;;;;;;;5.47;4.40;;;;;27.10;101324.00;;;;5051003;28;20621;-76
2021/08/22 11:19:14;;;;;;;4.63;3.58;;;;;27.20;101327.00;;;;5050044;28;20735;-77
2021/08/22 11:21:41;;;;;;;4.13;3.70;;;;;27.10;101331.00;;;;5051383;28;20199;-76
2021/08/22 11:24:10;;;;;;;4.65;3.83;;;;;27.00;101328.00;;;;5051059;28;20207;-77
2021/08/22 11:26:37;;;;;;;3.78;3.03;;;;;27.00;101332.00;;;;5051769;28;20211;-76
2021/08/22 11:29:05;;;;;;;3.50;3.10;;;;;27.00;101336.00;;;;5051569;28;20202;-78
2021/08/22 11:31:33;;;;;;;5.53;3.90;;;;;27.00;101344.00;;;;5052069;28;20207;-77
2021/08/22 11:34:12;;;;;;;4.63;4.20;;;;;26.80;101355.00;;;;5050825;28;20588;-77
2021/08/22 11:36:39;;;;;;;6.65;4.80;;;;;26.90;101334.00;;;;5051092;28;20327;-77
2021/08/22 11:39:13;;;;;;;4.13;3.72;;;;;26.70;101344.00;;;;5050945;28;20203;-77
2021/08/22 11:41:43;;;;;;;5.78;4.47;;;;;26.70;101338.00;;;;5051375;28;20191;-77
2021/08/22 11:44:11;;;;;;;8.05;4.00;;;;;26.60;101339.00;;;;5051165;28;20215;-77
2021/08/22 11:46:39;;;;;;;4.80;3.65;;;;;26.50;101341.00;;;;5050523;28;20678;-77
2021/08/22 11:49:06;;;;;;;4.50;3.33;;;;;26.50;101334.00;;;;5051415;28;20215;-76
2021/08/22 11:51:34;;;;;;;4.45;3.92;;;;;26.50;101322.00;;;;5051223;28;20214;-75
2021/08/22 11:54:01;;;;;;;6.00;4.28;;;;;26.40;101337.00;;;;5051288;28;20210;-76
2021/08/22 11:56:30;;;;;;;5.80;3.22;;;;;26.40;101345.00;;;;5050229;28;20211;-77
2021/08/22 11:58:57;;;;;;;2.15;1.95;;;;;26.40;101352.00;;;;5051119;28;20215;-77
2021/08/22 12:01:28;;;;;;;1.65;1.10;;;;;26.30;101376.00;;;;5050866;28;20203;-75
2021/08/22 12:04:00;;;;;;;1.27;1.10;;;;;26.20;101379.00;;;;5050521;28;20196;-77
2021/08/22 12:06:28;;;;;;;1.42;1.00;;;;;26.20;101381.00;;;;5063879;28;20192;-76
2021/08/22 12:08:55;;;;;;;1.30;0.95;;;;;26.10;101385.00;;;;5050336;28;20580;-77
2021/08/22 12:11:23;;;;;;;1.55;1.05;;;;;26.00;101381.00;;;;5050510;28;20210;-76
2021/08/22 12:13:54;;;;;;;2.47;0.77;;;;;25.90;101386.00;;;;5050703;28;20195;-77
2021/08/22 12:16:30;;;;;;;0.95;0.60;;;;;25.80;101385.00;;;;5050314;28;20200;-77
2021/08/22 12:19:17;;;;;;;1.20;0.50;;;;;25.60;101387.00;;;;5050099;28;20203;-77
2021/08/22 12:21:44;;;;;;;0.50;0.40;;;;;25.60;101391.00;;;;5050020;28;20199;-76
2021/08/22 12:24:20;;;;;;;0.60;0.50;;;;;25.50;101388.00;;;;5050670;28;20208;-78
2021/08/22 12:26:50;;;;;;;0.70;0.70;;;;;25.40;101386.00;;;;5050770;28;20218;-77